Dover Air Force Base
KDOV : now visible

Airfield :











YOU CAN JOIN US ON...

 
LOGIN :

Register | Disclaimer

   EN    FR    IT 

 









Legend :    VFR   Marginal VFR   IFR   Intensive IFR   Very Intensive IFR
Visi :
Ceiling :
>= 8 km
>= 3000ft
5 to 8 km
1000 to 3000 ft
1500m to 5 km
500 to 1000 ft
800 to 1500m
200 to 500 ft
< 800m
< 200 ft
Symbols :   Thunderstorms  Fog  Heavy snow  Heavy precipitations  Wind > 20 kt






- Airport Elevation : 24 ft


KDOV - Dover Air Force Base

CURRENT METAR :
  • 161156Z 04003KT 7SM -SN OVC021 02/M04 A3025 RMK AO2A SNB35 SLP247 P0000 60000 T00201037 10031 20020 53012 $

EXPIRED METARs :
  • 161135Z 00000KT 7SM -SN FEW023 BKN031 BKN080 03/M05 A3026 RMK AO2A SNB35 SLP250 $
  • 161056Z 00000KT 10SM BKN032 BKN065 OVC080 03/M04 A3025 RMK AO2A SLP247 T00261040 $
  • 160956Z AUTO 35003KT 10SM OVC085 02/M04 A3021 RMK AO2 RAB32E43 SLP234 P0000 T00241044 $
  • 160943Z 35005KT 10SM FEW045 BKN080 02/M05 A3021 RMK AO2A SNB32E43 SLP234 $
  • 160932Z 36008KT 7SM -SN FEW045 BKN085 02/M05 A3021 RMK AO2A SNB32 SLP234 $

TAF TAF KDOV
Valid from the 16 at 08:00 until the 17 at 14:00 UTC


160815Z 1608/1714 35006KT 9999 SCT040 BKN090 QNH3018INS
BECMG 1609/1610 34006KT 9000 -RASN BKN010 QNH3021INS
BECMG 1613/1614 33006KT 9000 -RA BKN006 620109 QNH3022INS
BECMG 1617/1618 32006KT 9000 -RA OVC005 620109 QNH3015INS
BECMG 1623/1624 08009KT 8000 -RA OVC005 620109 QNH3008INS
BECMG 1702/1703 10009KT 8000 -RA OVC004 QNH2999INS
BECMG 1705/1706 VRB06KT 8000 -RA BR BKN010 QNH2991INS
BECMG 1708/1709 19006KT 9000 -RA BKN009 QNH2961INS TX09/1708Z TN01/1608Z



MET'MAP, your aeronautical weather chart ! - Copyright ORBIFLY December 2007 - Disclaimer

ORBIFLY MET'MAP TEAM :

Programming & Development : Alexandra Zaïnal
Concept & original design : Baudouin d'Aumeries
Assistance for programming : Marc-Olivier Méhu
Technical & hardware support : Manuel Goepfert

Contact : metmap@orbifly.com




SOURCES & CREDITS :

   NOAA       Earth
Advisory